createdAt,value
2024-01-21T00:00:12.523Z,10.83
2024-01-21T00:02:40.702Z,11.17
2024-01-21T00:05:07.713Z,10.07
2024-01-21T00:07:34.891Z,10.43
2024-01-21T00:10:03.995Z,8.40
2024-01-21T00:12:30.915Z,8.17
2024-01-21T00:14:57.691Z,9.20
2024-01-21T00:17:24.455Z,9.37
2024-01-21T00:19:51.459Z,8.60
2024-01-21T00:22:18.240Z,7.60
2024-01-21T00:24:45.212Z,7.70
2024-01-21T00:27:12.105Z,8.73
2024-01-21T00:29:38.854Z,8.80
2024-01-21T00:32:05.625Z,9.00
2024-01-21T00:34:32.530Z,7.87
2024-01-21T00:36:59.346Z,8.77
2024-01-21T00:39:26.165Z,9.20
2024-01-21T00:42:01.504Z,8.40
2024-01-21T00:44:34.375Z,8.00
2024-01-21T00:47:01.141Z,8.87
2024-01-21T00:49:28.055Z,9.07
2024-01-21T00:51:54.906Z,9.20
2024-01-21T00:54:22.677Z,9.70
2024-01-21T00:56:49.490Z,9.27
2024-01-21T00:59:16.417Z,8.20
2024-01-21T01:01:43.243Z,9.10
2024-01-21T01:04:10.344Z,8.50
2024-01-21T01:06:37.293Z,9.20
2024-01-21T01:09:05.992Z,8.93
2024-01-21T01:11:32.972Z,10.60
2024-01-21T01:13:59.777Z,9.20
2024-01-21T01:16:26.571Z,10.63
2024-01-21T01:18:53.627Z,9.97
2024-01-21T01:21:20.557Z,9.87
2024-01-21T01:23:47.477Z,10.83
2024-01-21T01:26:14.262Z,11.50
2024-01-21T01:28:43.444Z,11.00
2024-01-21T01:31:17.003Z,9.50
2024-01-21T01:33:43.920Z,11.07
2024-01-21T01:36:11.941Z,10.80
2024-01-21T01:38:40.439Z,10.20
2024-01-21T01:41:07.430Z,9.63
2024-01-21T01:43:34.646Z,9.73
2024-01-21T01:46:01.979Z,7.60
2024-01-21T01:48:29.799Z,7.03
2024-01-21T01:50:58.067Z,8.13
2024-01-21T01:53:25.081Z,6.97
2024-01-21T01:55:51.879Z,6.00
2024-01-21T01:58:19.442Z,6.23
2024-01-21T02:00:48.308Z,5.57
2024-01-21T02:03:15.938Z,5.33
2024-01-21T02:05:42.797Z,6.00
2024-01-21T02:08:09.633Z,6.60
2024-01-21T02:10:36.472Z,5.33
2024-01-21T02:13:03.335Z,6.33
2024-01-21T02:15:30.131Z,5.53
2024-01-21T02:17:57.037Z,4.90
2024-01-21T02:20:23.833Z,6.03
2024-01-21T02:22:51.382Z,3.90
2024-01-21T02:25:18.226Z,4.23
2024-01-21T02:27:45.567Z,5.17
2024-01-21T02:30:12.573Z,5.80
2024-01-21T02:32:39.406Z,6.97
2024-01-21T02:35:06.372Z,6.43
2024-01-21T02:37:33.129Z,5.37
2024-01-21T02:39:59.849Z,6.00
2024-01-21T02:42:27.418Z,5.83
2024-01-21T02:44:55.667Z,5.77
2024-01-21T02:47:24.516Z,6.20
2024-01-21T02:49:51.540Z,6.27
2024-01-21T02:52:18.411Z,6.23
2024-01-21T02:54:45.271Z,5.70
2024-01-21T02:57:12.484Z,6.70
2024-01-21T02:59:39.678Z,6.40
2024-01-21T03:02:06.548Z,6.77
2024-01-21T03:04:33.354Z,6.53
2024-01-21T03:07:00.090Z,6.63
2024-01-21T03:09:26.905Z,5.73
2024-01-21T03:11:55.765Z,6.23
2024-01-21T03:14:22.553Z,7.00
2024-01-21T03:16:49.333Z,6.00
2024-01-21T03:19:16.103Z,7.83
2024-01-21T03:21:43.131Z,8.20
2024-01-21T03:24:09.979Z,6.73
2024-01-21T03:26:36.994Z,6.90
2024-01-21T03:29:03.751Z,7.57
2024-01-21T03:31:31.874Z,8.23
2024-01-21T03:33:58.800Z,7.00
2024-01-21T03:36:25.619Z,7.10
2024-01-21T03:38:52.389Z,7.53
2024-01-21T03:41:20.699Z,7.40
2024-01-21T03:43:47.585Z,7.60
2024-01-21T03:46:14.396Z,7.80
2024-01-21T03:48:41.288Z,7.33
2024-01-21T03:51:10.391Z,6.33
2024-01-21T03:53:38.025Z,7.70
2024-01-21T03:56:05.528Z,7.93
2024-01-21T03:58:32.489Z,6.50
2024-01-21T04:00:59.882Z,7.57
2024-01-21T04:03:27.142Z,7.00
2024-01-21T04:05:54.117Z,7.10
2024-01-21T04:08:21.011Z,7.20
2024-01-21T04:10:48.642Z,6.93
2024-01-21T04:13:15.425Z,6.80
2024-01-21T04:15:42.267Z,6.97
2024-01-21T04:18:09.097Z,8.37
2024-01-21T04:20:35.959Z,7.03
2024-01-21T04:23:02.877Z,7.33
2024-01-21T04:25:29.633Z,8.17
2024-01-21T04:27:56.417Z,7.70
2024-01-21T04:30:23.187Z,6.90
2024-01-21T04:32:50.041Z,7.60
2024-01-21T04:35:16.872Z,6.30
2024-01-21T04:37:43.709Z,7.20
2024-01-21T04:40:11.061Z,7.27
2024-01-21T04:42:37.855Z,7.40
2024-01-21T04:45:06.827Z,7.10
2024-01-21T04:47:34.882Z,7.47
2024-01-21T04:50:03.100Z,6.60
2024-01-21T04:52:29.850Z,6.90
2024-01-21T04:54:56.612Z,7.67
2024-01-21T04:57:23.505Z,7.50
2024-01-21T04:59:50.397Z,7.10
2024-01-21T05:02:17.238Z,6.63
2024-01-21T05:04:44.047Z,4.60
2024-01-21T05:07:10.804Z,4.27
2024-01-21T05:09:37.685Z,5.90
2024-01-21T05:12:04.614Z,7.93
2024-01-21T05:14:31.495Z,7.20
2024-01-21T05:16:58.255Z,5.90
2024-01-21T05:19:25.091Z,7.17
2024-01-21T05:21:52.787Z,6.27
2024-01-21T05:24:19.789Z,7.40
2024-01-21T05:26:46.846Z,6.63
2024-01-21T05:29:14.085Z,8.30
2024-01-21T05:31:40.988Z,7.50
2024-01-21T05:34:07.732Z,7.23
2024-01-21T05:36:34.617Z,6.77
2024-01-21T05:39:01.409Z,8.00
2024-01-21T05:41:29.899Z,7.00
2024-01-21T05:43:56.793Z,7.17
2024-01-21T05:46:24.073Z,7.60
2024-01-21T05:48:50.964Z,7.50
2024-01-21T05:51:18.054Z,6.40
2024-01-21T05:53:44.901Z,7.20
2024-01-21T05:56:11.626Z,7.00
2024-01-21T05:58:38.504Z,7.10
2024-01-21T06:01:05.560Z,7.20
2024-01-21T06:03:32.616Z,6.60
2024-01-21T06:05:59.570Z,7.10
2024-01-21T06:08:28.978Z,7.60
2024-01-21T06:10:55.925Z,7.60
2024-01-21T06:13:22.732Z,8.10
2024-01-21T06:15:49.585Z,8.17
2024-01-21T06:18:16.574Z,5.73
2024-01-21T06:20:43.443Z,7.30
2024-01-21T06:23:10.222Z,5.90
2024-01-21T06:25:37.008Z,7.10
2024-01-21T06:28:04.950Z,7.30
2024-01-21T06:30:31.912Z,7.03
2024-01-21T06:33:03.019Z,7.17
2024-01-21T06:35:30.681Z,5.37
2024-01-21T06:37:57.495Z,6.83
2024-01-21T06:40:24.407Z,6.80
2024-01-21T06:42:52.025Z,6.37
2024-01-21T06:45:19.359Z,6.53
2024-01-21T06:47:46.422Z,5.50
2024-01-21T06:50:13.407Z,6.37
2024-01-21T06:52:40.351Z,4.90
2024-01-21T06:55:07.926Z,5.33
2024-01-21T06:57:35.259Z,5.20
2024-01-21T07:00:04.707Z,5.07
2024-01-21T07:02:31.612Z,4.63
2024-01-21T07:04:58.763Z,5.50
2024-01-21T07:07:25.545Z,4.60
2024-01-21T07:09:52.432Z,5.40
2024-01-21T07:12:19.324Z,6.33
2024-01-21T07:14:46.250Z,5.00
2024-01-21T07:17:13.061Z,5.07
2024-01-21T07:19:39.834Z,5.40
2024-01-21T07:22:06.807Z,5.30
2024-01-21T07:24:33.641Z,4.00
2024-01-21T07:27:00.551Z,4.53
2024-01-21T07:29:27.364Z,5.07
2024-01-21T07:31:54.157Z,4.80
2024-01-21T07:34:21.077Z,4.57
2024-01-21T07:36:47.958Z,4.50
2024-01-21T07:39:14.797Z,4.90
2024-01-21T07:41:41.761Z,3.60
2024-01-21T07:44:08.458Z,4.10
2024-01-21T07:46:35.292Z,4.40
2024-01-21T07:49:02.118Z,3.73
2024-01-21T07:51:28.997Z,3.70
2024-01-21T07:53:55.915Z,3.53
2024-01-21T07:56:23.250Z,5.23
2024-01-21T07:58:50.007Z,3.07
2024-01-21T08:01:21.917Z,4.30
2024-01-21T08:03:49.003Z,3.50
2024-01-21T08:06:15.999Z,2.70
2024-01-21T08:08:42.989Z,3.60
2024-01-21T08:11:09.783Z,3.60
2024-01-21T08:13:36.566Z,4.60
2024-01-21T08:16:04.114Z,3.23
2024-01-21T08:18:32.309Z,3.50
2024-01-21T08:21:00.005Z,3.40
2024-01-21T08:23:26.762Z,4.00
2024-01-21T08:25:53.942Z,2.97
2024-01-21T08:28:20.750Z,3.70
2024-01-21T08:30:47.626Z,4.20
2024-01-21T08:33:14.639Z,3.93
2024-01-21T08:35:41.767Z,4.10
2024-01-21T08:38:08.516Z,4.00
2024-01-21T08:40:36.418Z,3.70
2024-01-21T08:43:03.312Z,5.10
2024-01-21T08:45:30.160Z,3.70
2024-01-21T08:47:57.334Z,4.47
2024-01-21T08:50:24.966Z,3.87
2024-01-21T08:52:51.861Z,4.10
2024-01-21T08:55:19.883Z,3.40
2024-01-21T08:57:46.807Z,3.63
2024-01-21T09:00:15.346Z,3.33
2024-01-21T09:02:42.450Z,2.90
2024-01-21T09:05:09.314Z,3.80
2024-01-21T09:07:36.279Z,3.57
2024-01-21T09:10:05.423Z,3.47
2024-01-21T09:12:32.671Z,4.00
2024-01-21T09:14:59.558Z,2.63
2024-01-21T09:17:26.583Z,3.37
2024-01-21T09:19:53.574Z,3.40
2024-01-21T09:22:21.196Z,3.07
2024-01-21T09:24:49.110Z,4.10
2024-01-21T09:27:17.143Z,3.57
2024-01-21T09:29:44.520Z,3.30
2024-01-21T09:32:14.465Z,4.10
2024-01-21T09:34:41.540Z,3.80
2024-01-21T09:37:08.403Z,3.53
2024-01-21T09:39:35.308Z,3.03
2024-01-21T09:42:06.383Z,4.00
2024-01-21T09:44:33.156Z,3.63
2024-01-21T09:47:00.472Z,4.40
2024-01-21T09:49:27.874Z,4.40
2024-01-21T09:51:55.705Z,3.90
2024-01-21T09:54:23.255Z,2.70
2024-01-21T09:56:50.060Z,4.07
2024-01-21T09:59:17.367Z,3.90
2024-01-21T10:01:44.320Z,4.17
2024-01-21T10:04:11.775Z,4.70
2024-01-21T10:06:39.229Z,4.10
2024-01-21T10:09:15.287Z,3.63
2024-01-21T10:11:42.352Z,4.70
2024-01-21T10:14:09.441Z,4.83
2024-01-21T10:16:40.785Z,4.57
2024-01-21T10:19:07.615Z,4.77
2024-01-21T10:21:34.927Z,5.73
2024-01-21T10:24:02.015Z,5.77
2024-01-21T10:26:28.822Z,5.53
2024-01-21T10:28:55.558Z,4.80
2024-01-21T10:31:22.302Z,5.17
2024-01-21T10:33:50.032Z,5.87
2024-01-21T10:36:17.469Z,6.17
2024-01-21T10:38:50.273Z,6.37
2024-01-21T10:41:30.964Z,5.33
2024-01-21T10:43:58.776Z,7.20
2024-01-21T10:46:26.923Z,5.17
2024-01-21T10:48:57.341Z,5.97
2024-01-21T10:51:24.811Z,5.47
2024-01-21T10:53:52.701Z,6.40
2024-01-21T10:56:20.579Z,6.57
2024-01-21T10:58:51.181Z,5.43
2024-01-21T11:01:18.468Z,6.70
2024-01-21T11:03:45.938Z,8.30
2024-01-21T11:06:13.395Z,6.23
2024-01-21T11:08:46.739Z,6.87
2024-01-21T11:11:15.449Z,7.80
2024-01-21T11:13:46.429Z,6.07
2024-01-21T11:16:31.605Z,8.10
2024-01-21T11:18:59.173Z,5.80
2024-01-21T11:21:26.863Z,7.37
2024-01-21T11:24:07.298Z,7.70
2024-01-21T11:26:38.138Z,7.30
2024-01-21T11:29:24.158Z,9.00
2024-01-21T11:32:11.386Z,8.10
2024-01-21T11:34:41.496Z,6.53
2024-01-21T11:37:13.838Z,7.70
2024-01-21T11:39:41.161Z,7.70
2024-01-21T11:42:08.707Z,8.70
2024-01-21T11:44:36.925Z,7.50
2024-01-21T11:47:04.918Z,7.33
2024-01-21T11:49:32.760Z,8.30
2024-01-21T11:52:07.851Z,8.40
2024-01-21T11:54:35.901Z,6.70
2024-01-21T11:57:03.061Z,6.60
2024-01-21T11:59:32.369Z,7.60
2024-01-21T12:02:00.749Z,8.70
2024-01-21T12:04:28.670Z,8.00
2024-01-21T12:06:56.233Z,8.30
2024-01-21T12:09:24.319Z,6.70
2024-01-21T12:11:51.891Z,7.33
2024-01-21T12:14:21.633Z,8.33
2024-01-21T12:16:53.241Z,7.83
2024-01-21T12:19:20.284Z,8.27
2024-01-21T12:21:47.501Z,8.70
2024-01-21T12:24:15.590Z,6.63
2024-01-21T12:26:45.271Z,7.80
2024-01-21T12:29:12.429Z,9.47
2024-01-21T12:31:40.727Z,9.50
2024-01-21T12:34:08.450Z,8.50
2024-01-21T12:36:36.853Z,8.97
2024-01-21T12:39:05.635Z,10.40
2024-01-21T12:41:33.279Z,9.70
2024-01-21T12:44:01.072Z,9.17
2024-01-21T12:46:28.065Z,10.17
2024-01-21T12:48:55.121Z,8.23
2024-01-21T12:51:24.810Z,9.33
2024-01-21T12:53:52.959Z,8.13
2024-01-21T12:56:20.559Z,7.30
2024-01-21T12:58:48.053Z,8.97
2024-01-21T13:01:17.047Z,8.53
2024-01-21T13:03:44.915Z,8.50
2024-01-21T13:06:12.636Z,10.03
2024-01-21T13:08:40.652Z,7.53
2024-01-21T13:11:07.724Z,9.37
2024-01-21T13:13:34.826Z,9.97
2024-01-21T13:16:03.167Z,10.30
2024-01-21T13:18:33.604Z,11.00
2024-01-21T13:21:00.774Z,9.00
2024-01-21T13:23:27.894Z,10.07
2024-01-21T13:25:55.018Z,9.70
2024-01-21T13:28:21.904Z,10.40
2024-01-21T13:30:51.092Z,10.23
2024-01-21T13:33:19.140Z,9.63
2024-01-21T13:35:47.224Z,9.53
2024-01-21T13:38:18.960Z,9.37
2024-01-21T13:40:47.130Z,11.00
2024-01-21T13:43:14.014Z,9.40
2024-01-21T13:45:41.444Z,10.30
2024-01-21T13:48:09.162Z,11.33
2024-01-21T13:50:36.033Z,11.40
2024-01-21T13:53:03.670Z,10.00
2024-01-21T13:55:30.898Z,11.70
2024-01-21T13:57:58.113Z,12.30
2024-01-21T14:00:25.616Z,11.77
2024-01-21T14:02:55.800Z,12.23
2024-01-21T14:05:23.254Z,11.70
2024-01-21T14:07:50.301Z,12.90
2024-01-21T14:10:17.530Z,12.10
2024-01-21T14:12:45.969Z,11.83
2024-01-21T14:15:13.505Z,8.50
2024-01-21T14:17:40.623Z,9.70
2024-01-21T14:20:10.401Z,11.77
2024-01-21T14:22:37.900Z,13.23
2024-01-21T14:25:19.942Z,14.20
2024-01-21T14:27:47.259Z,13.07
2024-01-21T14:30:17.626Z,14.70
2024-01-21T14:32:44.663Z,13.67
2024-01-21T14:35:11.545Z,12.53
2024-01-21T14:37:38.389Z,13.40
2024-01-21T14:40:05.579Z,12.40
2024-01-21T14:42:32.529Z,12.83
2024-01-21T14:44:59.351Z,12.20
2024-01-21T14:47:26.225Z,13.13
2024-01-21T14:49:53.097Z,13.27
2024-01-21T14:52:19.840Z,13.90
2024-01-21T14:54:46.627Z,12.60
2024-01-21T14:57:13.445Z,13.10
2024-01-21T14:59:40.421Z,14.27
2024-01-21T15:02:07.361Z,11.47
2024-01-21T15:04:34.261Z,13.57
2024-01-21T15:07:01.273Z,13.87
2024-01-21T15:09:28.214Z,12.20
2024-01-21T15:11:54.940Z,8.07
2024-01-21T15:14:31.696Z,10.17
2024-01-21T15:16:59.385Z,11.80
2024-01-21T15:19:26.299Z,12.90
2024-01-21T15:21:53.236Z,12.57
2024-01-21T15:24:20.072Z,13.70
2024-01-21T15:26:46.909Z,10.87
2024-01-21T15:29:13.655Z,13.40
2024-01-21T15:31:40.594Z,9.80
2024-01-21T15:34:07.512Z,12.20
2024-01-21T15:36:34.429Z,13.30
2024-01-21T15:39:01.194Z,11.63
2024-01-21T15:41:28.048Z,11.77
2024-01-21T15:43:54.932Z,12.33
2024-01-21T15:46:21.724Z,12.00
2024-01-21T15:48:48.726Z,11.43
2024-01-21T15:51:15.710Z,12.70
2024-01-21T15:53:42.904Z,11.87
2024-01-21T15:56:09.740Z,11.37
2024-01-21T15:58:36.500Z,12.00
2024-01-21T16:01:03.904Z,11.60
2024-01-21T16:03:31.115Z,11.47
2024-01-21T16:05:58.314Z,12.37
2024-01-21T16:08:25.996Z,12.90
2024-01-21T16:10:52.927Z,12.90
2024-01-21T16:13:24.744Z,15.77
2024-01-21T16:15:57.628Z,14.17
2024-01-21T16:18:24.778Z,11.93
2024-01-21T16:20:53.468Z,13.30
2024-01-21T16:23:21.335Z,12.47
2024-01-21T16:25:48.276Z,12.10
2024-01-21T16:28:15.144Z,12.30
2024-01-21T16:30:42.190Z,12.57
2024-01-21T16:33:09.193Z,12.00
2024-01-21T16:35:36.093Z,12.07
2024-01-21T16:38:02.996Z,11.90
2024-01-21T16:40:29.793Z,10.17
2024-01-21T16:42:59.266Z,12.40
2024-01-21T16:45:28.493Z,12.30
2024-01-21T16:47:55.382Z,11.97
2024-01-21T16:50:22.219Z,12.67
2024-01-21T16:52:56.236Z,12.57
2024-01-21T16:55:23.026Z,12.30
2024-01-21T16:57:50.752Z,11.47
2024-01-21T17:00:19.724Z,10.47
2024-01-21T17:02:49.377Z,11.57
2024-01-21T17:05:16.417Z,13.43
2024-01-21T17:07:45.580Z,12.47
2024-01-21T17:10:17.169Z,12.07
2024-01-21T17:12:44.007Z,11.20
2024-01-21T17:15:12.884Z,12.63
2024-01-21T17:17:47.215Z,12.23
2024-01-21T17:20:14.333Z,11.73
2024-01-21T17:22:41.203Z,12.13
2024-01-21T17:25:08.340Z,10.30
2024-01-21T17:27:35.175Z,12.27
2024-01-21T17:30:02.824Z,11.30
2024-01-21T17:32:29.782Z,12.70
2024-01-21T17:34:56.712Z,12.03
2024-01-21T17:37:23.681Z,12.30
2024-01-21T17:39:50.460Z,12.30
2024-01-21T17:42:17.379Z,11.90
2024-01-21T17:44:44.221Z,12.30
2024-01-21T17:47:11.492Z,13.60
2024-01-21T17:49:38.262Z,13.43
2024-01-21T17:52:05.290Z,13.23
2024-01-21T17:54:32.488Z,11.57
2024-01-21T17:56:59.521Z,13.63
2024-01-21T17:59:26.752Z,13.50
2024-01-21T18:01:53.726Z,13.13
2024-01-21T18:04:20.566Z,12.83
2024-01-21T18:06:47.430Z,12.40
2024-01-21T18:09:15.424Z,12.37
2024-01-21T18:11:42.262Z,11.33
2024-01-21T18:14:10.266Z,11.80
2024-01-21T18:16:37.043Z,11.23
2024-01-21T18:19:03.897Z,13.67
2024-01-21T18:21:31.968Z,11.00
2024-01-21T18:23:59.084Z,11.90
2024-01-21T18:26:26.605Z,11.30
2024-01-21T18:29:09.446Z,10.73
2024-01-21T18:31:41.007Z,10.97
2024-01-21T18:34:08.437Z,12.37
2024-01-21T18:36:35.304Z,11.73
2024-01-21T18:39:02.245Z,11.00
2024-01-21T18:41:29.631Z,11.97
2024-01-21T18:43:56.900Z,14.20
2024-01-21T18:46:24.087Z,11.20
2024-01-21T18:48:51.380Z,13.65
2024-01-21T18:51:18.291Z,11.53
2024-01-21T18:53:45.049Z,10.57
2024-01-21T18:56:14.769Z,10.80
2024-01-21T18:58:41.807Z,12.20
2024-01-21T19:01:08.645Z,9.53
2024-01-21T19:03:35.634Z,11.60
2024-01-21T19:06:02.988Z,11.97
2024-01-21T19:08:29.765Z,12.13
2024-01-21T19:10:56.684Z,8.43
2024-01-21T19:13:23.520Z,11.50
2024-01-21T19:15:50.476Z,9.80
2024-01-21T19:18:17.415Z,14.70
2024-01-21T19:20:46.010Z,9.17
2024-01-21T19:23:12.927Z,9.70
2024-01-21T19:25:39.889Z,13.17
2024-01-21T19:28:07.321Z,11.07
2024-01-21T19:30:34.243Z,8.90
2024-01-21T19:33:01.194Z,8.73
2024-01-21T19:35:28.136Z,11.40
2024-01-21T19:37:55.573Z,10.90
2024-01-21T19:40:22.350Z,10.50
2024-01-21T19:42:49.132Z,11.97
2024-01-21T19:45:16.100Z,10.07
2024-01-21T19:47:43.025Z,10.60
2024-01-21T19:50:10.037Z,9.07
2024-01-21T19:52:36.784Z,9.73
2024-01-21T19:55:04.671Z,11.30
2024-01-21T19:57:31.590Z,10.43
2024-01-21T19:59:58.377Z,10.20
2024-01-21T20:02:25.455Z,9.17
2024-01-21T20:04:52.522Z,11.23
2024-01-21T20:07:22.836Z,10.57
2024-01-21T20:09:50.081Z,7.50
2024-01-21T20:12:17.045Z,11.03
2024-01-21T20:14:43.958Z,10.10
2024-01-21T20:17:10.782Z,10.17
2024-01-21T20:19:37.954Z,11.80
2024-01-21T20:22:04.775Z,11.10
2024-01-21T20:24:31.531Z,10.43
2024-01-21T20:26:58.338Z,10.27
2024-01-21T20:29:25.087Z,9.80
2024-01-21T20:31:52.595Z,9.20
2024-01-21T20:34:20.153Z,10.00
2024-01-21T20:36:46.996Z,9.63
2024-01-21T20:39:13.863Z,9.90
2024-01-21T20:41:40.715Z,9.53
2024-01-21T20:44:07.582Z,9.07
2024-01-21T20:46:35.015Z,8.53
2024-01-21T20:49:02.005Z,8.40
2024-01-21T20:51:28.861Z,7.00
2024-01-21T20:53:58.379Z,6.83
2024-01-21T20:56:25.590Z,7.67
2024-01-21T20:58:52.597Z,6.53
2024-01-21T21:01:19.616Z,8.03
2024-01-21T21:03:46.741Z,8.30
2024-01-21T21:06:13.789Z,6.90
2024-01-21T21:08:41.498Z,7.60
2024-01-21T21:11:08.548Z,7.70
2024-01-21T21:13:35.399Z,6.90
2024-01-21T21:16:02.268Z,6.60
2024-01-21T21:18:29.182Z,5.50
2024-01-21T21:20:56.157Z,4.80
2024-01-21T21:23:25.036Z,6.17
2024-01-21T21:25:51.878Z,4.50
2024-01-21T21:28:18.689Z,6.80
2024-01-21T21:30:45.603Z,5.80
2024-01-21T21:33:12.755Z,5.37
2024-01-21T21:35:40.332Z,5.67
2024-01-21T21:38:07.246Z,5.30
2024-01-21T21:40:34.088Z,4.97
2024-01-21T21:43:01.007Z,4.47
2024-01-21T21:45:27.840Z,5.37
2024-01-21T21:47:54.790Z,6.00
2024-01-21T21:50:21.944Z,5.13
2024-01-21T21:52:48.917Z,4.90
2024-01-21T21:55:15.952Z,6.20
2024-01-21T21:57:42.815Z,6.17
2024-01-21T22:00:12.609Z,5.80
2024-01-21T22:02:40.092Z,5.50
2024-01-21T22:05:07.142Z,5.00
2024-01-21T22:07:34.054Z,5.93
2024-01-21T22:10:01.168Z,5.77
2024-01-21T22:12:28.007Z,5.87
2024-01-21T22:14:55.001Z,5.80
2024-01-21T22:17:21.896Z,4.50
2024-01-21T22:19:49.164Z,5.50
2024-01-21T22:22:16.618Z,5.10
2024-01-21T22:24:43.776Z,4.80
2024-01-21T22:27:11.184Z,4.80
2024-01-21T22:29:38.067Z,4.10
2024-01-21T22:32:05.104Z,3.70
2024-01-21T22:34:31.854Z,3.90
2024-01-21T22:36:58.622Z,4.90
2024-01-21T22:39:26.033Z,3.80
2024-01-21T22:41:52.887Z,4.63
2024-01-21T22:44:19.699Z,3.90
2024-01-21T22:46:46.561Z,4.13
2024-01-21T22:49:13.590Z,4.47
2024-01-21T22:51:40.448Z,4.60
2024-01-21T22:54:07.239Z,4.33
2024-01-21T22:56:34.071Z,4.60
2024-01-21T22:59:00.909Z,3.80
2024-01-21T23:01:27.741Z,4.40
2024-01-21T23:03:54.954Z,4.33
2024-01-21T23:06:21.791Z,4.00
2024-01-21T23:08:48.646Z,3.70
2024-01-21T23:11:15.405Z,3.80
2024-01-21T23:13:42.298Z,4.33
2024-01-21T23:16:10.370Z,3.73
2024-01-21T23:18:37.357Z,3.90
2024-01-21T23:21:04.270Z,4.53
2024-01-21T23:23:31.159Z,3.63
2024-01-21T23:25:57.945Z,4.83
2024-01-21T23:28:24.687Z,3.50
2024-01-21T23:30:51.999Z,4.30
2024-01-21T23:33:18.922Z,3.63
2024-01-21T23:35:45.803Z,3.80
2024-01-21T23:38:13.361Z,4.03
2024-01-21T23:40:40.259Z,3.33
2024-01-21T23:43:07.184Z,3.67
2024-01-21T23:45:33.949Z,4.10
2024-01-21T23:48:00.844Z,4.80
2024-01-21T23:50:27.695Z,4.37
2024-01-21T23:52:54.503Z,4.57
2024-01-21T23:55:21.317Z,4.80
2024-01-21T23:57:48.145Z,5.23
